createdAt,value
2018-10-02T00:01:57.768Z,2.00
2018-10-02T00:04:26.149Z,1.77
2018-10-02T00:06:54.465Z,2.02
2018-10-02T00:09:22.923Z,1.60
2018-10-02T00:11:56.735Z,2.10
2018-10-02T00:14:27.540Z,2.00
2018-10-02T00:16:56.702Z,2.37
2018-10-02T00:19:25.005Z,2.13
2018-10-02T00:21:53.303Z,2.13
2018-10-02T00:24:21.583Z,2.40
2018-10-02T00:26:50.158Z,2.30
2018-10-02T00:29:18.588Z,2.37
2018-10-02T00:31:47.205Z,2.70
2018-10-02T00:34:15.782Z,2.37
2018-10-02T00:36:44.177Z,2.50
2018-10-02T00:39:12.567Z,2.60
2018-10-02T00:41:40.938Z,2.77
2018-10-02T00:44:09.431Z,2.33
2018-10-02T00:46:37.905Z,2.12
2018-10-02T00:49:06.307Z,2.00
2018-10-02T00:51:34.639Z,2.50
2018-10-02T00:54:03.054Z,2.70
2018-10-02T00:56:31.580Z,2.57
2018-10-02T00:59:00.085Z,2.67
2018-10-02T01:01:28.516Z,2.40
2018-10-02T01:03:56.982Z,2.20
2018-10-02T01:06:25.342Z,2.35
2018-10-02T01:08:53.769Z,2.40
2018-10-02T01:11:22.144Z,2.92
2018-10-02T01:13:50.504Z,3.07
2018-10-02T01:16:18.977Z,3.00
2018-10-02T01:18:47.414Z,2.20
2018-10-02T01:21:15.879Z,3.22
2018-10-02T01:23:44.334Z,3.23
2018-10-02T01:26:12.687Z,3.08
2018-10-02T01:28:41.042Z,3.10
2018-10-02T01:31:09.627Z,3.33
2018-10-02T01:33:38.138Z,3.10
2018-10-02T01:36:06.845Z,3.05
2018-10-02T01:38:35.236Z,2.90
2018-10-02T01:41:03.724Z,2.80
2018-10-02T01:43:32.030Z,3.03
2018-10-02T01:46:00.410Z,2.47
2018-10-02T01:48:28.846Z,2.80
2018-10-02T01:50:57.139Z,2.67
2018-10-02T01:53:25.596Z,2.83
2018-10-02T01:55:54.035Z,2.72
2018-10-02T01:58:22.418Z,3.13
2018-10-02T02:00:50.914Z,2.50
2018-10-02T02:03:19.418Z,3.27
2018-10-02T02:05:47.770Z,2.98
2018-10-02T02:08:16.472Z,2.93
2018-10-02T02:10:44.892Z,2.42
2018-10-02T02:13:13.316Z,3.27
2018-10-02T02:15:41.824Z,2.77
2018-10-02T02:18:10.307Z,2.67
2018-10-02T02:20:38.750Z,2.90
2018-10-02T02:23:07.151Z,3.27
2018-10-02T02:25:35.553Z,2.70
2018-10-02T02:28:03.916Z,5.37
2018-10-02T02:30:32.566Z,3.50
2018-10-02T02:33:00.867Z,3.50
2018-10-02T02:35:29.251Z,3.00
2018-10-02T02:37:57.669Z,3.43
2018-10-02T02:40:26.118Z,2.92
2018-10-02T02:42:54.557Z,3.57
2018-10-02T02:45:22.940Z,3.72
2018-10-02T02:47:56.461Z,3.27
2018-10-02T02:50:30.063Z,3.43
2018-10-02T02:53:04.190Z,3.30
2018-10-02T02:55:32.585Z,3.47
2018-10-02T02:58:00.963Z,3.92
2018-10-02T03:00:29.465Z,3.67
2018-10-02T03:02:57.841Z,3.55
2018-10-02T03:05:26.204Z,3.47
2018-10-02T03:07:54.580Z,4.12
2018-10-02T03:10:23.586Z,3.73
2018-10-02T03:12:52.087Z,3.47
2018-10-02T03:15:20.527Z,4.35
2018-10-02T03:17:48.889Z,3.47
2018-10-02T03:20:17.312Z,3.80
2018-10-02T03:22:45.775Z,3.30
2018-10-02T03:25:14.259Z,3.72
2018-10-02T03:27:42.827Z,3.90
2018-10-02T03:30:11.157Z,3.62
2018-10-02T03:32:39.383Z,3.30
2018-10-02T03:35:08.204Z,3.53
2018-10-02T03:37:36.670Z,3.30
2018-10-02T03:40:05.087Z,3.62
2018-10-02T03:42:33.559Z,3.57
2018-10-02T03:45:02.020Z,3.40
2018-10-02T03:47:30.795Z,4.10
2018-10-02T03:49:59.071Z,3.83
2018-10-02T03:52:27.420Z,3.90
2018-10-02T03:54:55.914Z,3.47
2018-10-02T03:57:24.410Z,3.57
2018-10-02T03:59:52.885Z,4.00
2018-10-02T04:02:21.355Z,3.73
2018-10-02T04:04:49.697Z,3.77
2018-10-02T04:07:18.870Z,4.50
2018-10-02T04:09:47.211Z,4.10
2018-10-02T04:12:15.776Z,4.40
2018-10-02T04:14:44.156Z,3.77
2018-10-02T04:17:12.667Z,4.47
2018-10-02T04:19:41.122Z,3.83
2018-10-02T04:22:14.931Z,4.55
2018-10-02T04:24:43.331Z,4.50
2018-10-02T04:27:11.796Z,4.35
2018-10-02T04:29:40.210Z,3.97
2018-10-02T04:32:08.863Z,4.05
2018-10-02T04:34:37.339Z,3.97
2018-10-02T04:37:05.908Z,4.03
2018-10-02T04:39:34.411Z,4.07
2018-10-02T04:42:02.853Z,4.37
2018-10-02T04:44:31.360Z,4.40
2018-10-02T04:46:59.861Z,4.30
2018-10-02T04:49:29.666Z,3.70
2018-10-02T04:51:58.886Z,4.27
2018-10-02T04:54:28.190Z,4.70
2018-10-02T04:56:56.636Z,5.97
2018-10-02T04:59:25.007Z,6.08
2018-10-02T05:01:53.603Z,7.77
2018-10-02T05:04:21.999Z,11.95
2018-10-02T05:06:50.576Z,10.53
2018-10-02T05:09:19.068Z,8.48
2018-10-02T05:11:47.634Z,5.80
2018-10-02T05:14:16.152Z,6.17
2018-10-02T05:16:44.518Z,5.33
2018-10-02T05:19:13.107Z,5.30
2018-10-02T05:21:41.692Z,5.37
2018-10-02T05:24:10.158Z,5.40
2018-10-02T05:26:38.588Z,5.37
2018-10-02T05:29:07.057Z,6.60
2018-10-02T05:31:35.288Z,4.83
2018-10-02T05:34:03.655Z,5.10
2018-10-02T05:36:31.914Z,5.00
2018-10-02T05:39:00.220Z,4.70
2018-10-02T05:41:28.514Z,4.17
2018-10-02T05:43:56.772Z,4.30
2018-10-02T05:46:25.049Z,4.00
2018-10-02T05:48:53.321Z,3.80
2018-10-02T05:51:21.675Z,4.30
2018-10-02T05:53:50.061Z,3.77
2018-10-02T05:56:18.456Z,3.80
2018-10-02T05:58:46.846Z,4.27
2018-10-02T06:01:15.208Z,3.70
2018-10-02T06:03:43.584Z,3.25
2018-10-02T06:06:12.102Z,3.63
2018-10-02T06:08:40.656Z,3.47
2018-10-02T06:11:09.107Z,3.10
2018-10-02T06:13:37.681Z,3.50
2018-10-02T06:16:06.069Z,2.93
2018-10-02T06:18:34.530Z,3.45
2018-10-02T06:21:02.967Z,3.97
2018-10-02T06:23:31.602Z,4.60
2018-10-02T06:25:59.987Z,3.80
2018-10-02T06:28:28.385Z,3.72
2018-10-02T06:30:56.891Z,6.00
2018-10-02T06:33:25.372Z,4.20
2018-10-02T06:35:53.710Z,5.90
2018-10-02T06:38:22.323Z,3.83
2018-10-02T06:40:50.599Z,4.27
2018-10-02T06:43:18.880Z,4.45
2018-10-02T06:45:47.141Z,5.28
2018-10-02T06:48:15.589Z,4.33
2018-10-02T06:50:44.245Z,4.67
2018-10-02T06:53:12.471Z,4.20
2018-10-02T06:55:40.790Z,3.83
2018-10-02T06:58:09.060Z,6.00
2018-10-02T07:00:37.684Z,4.97
2018-10-02T07:03:06.118Z,5.40
2018-10-02T07:05:34.432Z,4.55
2018-10-02T07:08:06.332Z,4.90
2018-10-02T07:10:34.815Z,5.37
2018-10-02T07:13:03.228Z,3.98
2018-10-02T07:15:31.588Z,3.77
2018-10-02T07:18:00.035Z,4.53
2018-10-02T07:20:28.429Z,4.03
2018-10-02T07:22:56.755Z,4.42
2018-10-02T07:25:25.224Z,5.60
2018-10-02T07:27:53.750Z,5.47
2018-10-02T07:30:22.098Z,3.90
2018-10-02T07:32:50.717Z,4.42
2018-10-02T07:35:19.103Z,3.90
2018-10-02T07:37:47.592Z,3.85
2018-10-02T07:40:15.900Z,4.43
2018-10-02T07:42:44.285Z,3.60
2018-10-02T07:45:12.595Z,4.35
2018-10-02T07:47:41.117Z,5.73
2018-10-02T07:50:09.517Z,4.58
2018-10-02T07:52:37.834Z,3.60
2018-10-02T07:55:06.118Z,3.05
2018-10-02T07:57:34.451Z,2.83
2018-10-02T08:00:03.480Z,3.25
2018-10-02T08:02:32.025Z,3.45
2018-10-02T08:05:00.418Z,3.27
2018-10-02T08:07:28.775Z,4.28
2018-10-02T08:09:57.127Z,2.50
2018-10-02T08:12:26.351Z,5.72
2018-10-02T08:14:55.206Z,9.23
2018-10-02T08:17:23.782Z,5.17
2018-10-02T08:19:52.338Z,3.63
2018-10-02T08:22:20.771Z,15.60
2018-10-02T08:24:49.359Z,25.75
2018-10-02T08:27:17.961Z,9.50
2018-10-02T08:29:46.273Z,5.35
2018-10-02T08:32:14.697Z,4.20
2018-10-02T08:34:43.072Z,4.12
2018-10-02T08:37:11.521Z,2.77
2018-10-02T08:39:40.106Z,3.08
2018-10-02T08:42:08.532Z,3.27
2018-10-02T08:44:37.008Z,17.32
2018-10-02T08:47:05.799Z,3.30
2018-10-02T08:49:34.479Z,3.10
2018-10-02T08:52:03.085Z,2.60
2018-10-02T08:54:32.060Z,3.20
2018-10-02T08:57:00.416Z,2.98
2018-10-02T08:59:29.129Z,3.08
2018-10-02T09:01:57.689Z,4.13
2018-10-02T09:04:26.039Z,3.08
2018-10-02T09:06:54.456Z,3.40
2018-10-02T09:09:22.831Z,3.30
2018-10-02T09:11:51.225Z,3.17
2018-10-02T09:14:19.650Z,2.75
2018-10-02T09:16:48.094Z,2.57
2018-10-02T09:19:16.461Z,3.00
2018-10-02T09:21:44.834Z,2.70
2018-10-02T09:24:13.222Z,2.98
2018-10-02T09:26:41.721Z,2.60
2018-10-02T09:29:10.140Z,3.12
2018-10-02T09:31:43.985Z,3.20
2018-10-02T09:34:17.854Z,2.80
2018-10-02T09:36:51.718Z,2.50
2018-10-02T09:39:25.307Z,3.00
2018-10-02T09:41:59.088Z,3.10
2018-10-02T09:44:27.646Z,3.47
2018-10-02T09:46:55.984Z,2.47
2018-10-02T09:49:24.659Z,3.00
2018-10-02T09:51:53.134Z,3.00
2018-10-02T09:54:21.574Z,2.80
2018-10-02T09:56:50.001Z,2.65
2018-10-02T09:59:18.402Z,3.13
2018-10-02T10:01:51.956Z,2.92
2018-10-02T10:04:20.573Z,2.80
2018-10-02T10:06:48.943Z,2.58
2018-10-02T10:09:17.327Z,3.20
2018-10-02T10:11:46.001Z,3.77
2018-10-02T10:14:14.345Z,3.37
2018-10-02T10:16:42.979Z,2.83
2018-10-02T10:19:11.300Z,3.93
2018-10-02T10:21:39.714Z,3.17
2018-10-02T10:24:09.082Z,2.67
2018-10-02T10:26:37.384Z,3.30
2018-10-02T10:29:05.967Z,2.92
2018-10-02T10:31:34.136Z,4.43
2018-10-02T10:34:02.601Z,2.37
2018-10-02T10:36:31.310Z,3.23
2018-10-02T10:38:59.668Z,2.25
2018-10-02T10:41:28.266Z,2.60
2018-10-02T10:43:56.644Z,2.58
2018-10-02T10:46:25.426Z,2.57
2018-10-02T10:48:53.721Z,2.27
2018-10-02T10:51:22.060Z,2.20
2018-10-02T10:53:50.545Z,2.10
2018-10-02T10:56:18.992Z,2.62
2018-10-02T10:58:47.440Z,2.20
2018-10-02T11:01:15.992Z,1.98
2018-10-02T11:03:44.394Z,2.20
2018-10-02T11:06:14.874Z,2.30
2018-10-02T11:08:43.343Z,2.23
2018-10-02T11:11:11.838Z,2.10
2018-10-02T11:13:40.373Z,2.50
2018-10-02T11:16:09.773Z,1.98
2018-10-02T11:18:38.289Z,2.17
2018-10-02T11:21:06.837Z,1.98
2018-10-02T11:23:35.288Z,2.00
2018-10-02T11:26:03.787Z,2.10
2018-10-02T11:28:32.113Z,2.20
2018-10-02T11:31:00.661Z,1.83
2018-10-02T11:33:29.123Z,2.03
2018-10-02T11:35:57.493Z,1.98
2018-10-02T11:38:26.000Z,2.20
2018-10-02T11:40:54.455Z,1.95
2018-10-02T11:43:22.896Z,2.47
2018-10-02T11:45:51.108Z,2.72
2018-10-02T11:48:19.652Z,2.27
2018-10-02T11:50:48.101Z,2.12
2018-10-02T11:53:16.415Z,2.47
2018-10-02T11:55:45.118Z,2.02
2018-10-02T11:58:14.253Z,2.10
2018-10-02T12:00:46.465Z,2.40
2018-10-02T12:03:14.776Z,2.07
2018-10-02T12:05:43.362Z,2.50
2018-10-02T12:08:11.875Z,2.30
2018-10-02T12:10:40.336Z,2.20
2018-10-02T12:13:09.238Z,2.00
2018-10-02T12:15:37.754Z,2.63
2018-10-02T12:18:06.388Z,3.10
2018-10-02T12:20:34.887Z,2.10
2018-10-02T12:23:03.683Z,2.30
2018-10-02T12:25:32.511Z,1.95
2018-10-02T12:28:01.028Z,2.20
2018-10-02T12:30:30.283Z,2.37
2018-10-02T12:32:59.367Z,2.40
2018-10-02T12:35:28.257Z,2.50
2018-10-02T12:37:56.706Z,2.93
2018-10-02T12:40:26.508Z,3.10
2018-10-02T12:42:56.420Z,2.70
2018-10-02T12:45:25.470Z,2.50
2018-10-02T12:47:55.016Z,2.73
2018-10-02T12:50:23.374Z,2.30
2018-10-02T12:52:53.071Z,2.93
2018-10-02T12:55:21.661Z,2.70
2018-10-02T12:57:50.370Z,2.08
2018-10-02T13:00:18.793Z,2.45
2018-10-02T13:02:47.635Z,2.50
2018-10-02T13:05:16.881Z,2.20
2018-10-02T13:07:45.835Z,2.23
2018-10-02T13:10:15.279Z,3.10
2018-10-02T13:12:44.328Z,2.60
2018-10-02T13:15:12.604Z,2.50
2018-10-02T13:17:42.789Z,2.07
2018-10-02T13:20:11.326Z,2.50
2018-10-02T13:22:40.061Z,2.42
2018-10-02T13:25:09.641Z,2.85
2018-10-02T13:27:38.218Z,2.30
2018-10-02T13:30:08.905Z,2.30
2018-10-02T13:32:37.571Z,2.73
2018-10-02T13:35:06.049Z,2.25
2018-10-02T13:37:34.564Z,2.10
2018-10-02T13:40:03.009Z,2.40
2018-10-02T13:42:31.668Z,2.22
2018-10-02T13:45:07.303Z,2.40
2018-10-02T13:47:35.774Z,2.30
2018-10-02T13:50:08.830Z,2.17
2018-10-02T13:52:37.435Z,2.20
2018-10-02T13:55:05.952Z,2.37
2018-10-02T13:57:34.640Z,2.13
2018-10-02T14:00:04.820Z,2.10
2018-10-02T14:02:33.206Z,4.17
2018-10-02T14:05:02.057Z,2.15
2018-10-02T14:07:30.409Z,2.20
2018-10-02T14:09:59.039Z,2.70
2018-10-02T14:12:27.824Z,2.60
2018-10-02T14:14:57.576Z,2.30
2018-10-02T14:17:26.592Z,2.87
2018-10-02T14:19:55.495Z,2.20
2018-10-02T14:22:24.356Z,2.47
2018-10-02T14:24:52.884Z,2.20
2018-10-02T14:27:21.489Z,2.10
2018-10-02T14:29:50.508Z,2.13
2018-10-02T14:32:19.107Z,2.30
2018-10-02T14:34:48.036Z,2.30
2018-10-02T14:37:16.484Z,2.93
2018-10-02T14:39:44.868Z,1.82
2018-10-02T14:45:27.539Z,2.00
2018-10-02T14:47:55.876Z,1.80
2018-10-02T14:50:24.235Z,1.90
2018-10-02T14:52:52.832Z,1.80
2018-10-02T14:55:21.861Z,1.60
2018-10-02T14:57:54.150Z,2.10
2018-10-02T15:00:23.137Z,2.33
2018-10-02T15:02:52.121Z,1.93
2018-10-02T15:05:21.095Z,2.00
2018-10-02T15:07:49.675Z,2.40
2018-10-02T15:10:18.257Z,2.22
2018-10-02T15:12:46.737Z,2.57
2018-10-02T15:15:15.124Z,2.10
2018-10-02T15:17:43.700Z,3.00
2018-10-02T15:20:12.199Z,2.53
2018-10-02T15:22:40.503Z,2.50
2018-10-02T15:25:09.758Z,2.80
2018-10-02T15:27:38.980Z,2.57
2018-10-02T15:30:07.633Z,3.10
2018-10-02T15:32:36.403Z,2.47
2018-10-02T15:35:05.324Z,2.90
2018-10-02T15:37:36.105Z,2.63
2018-10-02T15:40:06.447Z,2.27
2018-10-02T15:42:35.820Z,2.30
2018-10-02T15:45:07.516Z,2.47
2018-10-02T15:47:38.073Z,2.23
2018-10-02T15:50:07.349Z,2.90
2018-10-02T15:52:36.553Z,3.03
2018-10-02T15:55:05.565Z,2.90
2018-10-02T15:57:35.412Z,2.33
2018-10-02T16:00:05.790Z,2.57
2018-10-02T16:02:36.275Z,2.90
2018-10-02T16:05:05.529Z,2.30
2018-10-02T16:07:34.890Z,2.77
2018-10-02T16:10:03.941Z,2.40
2018-10-02T16:12:32.989Z,2.30
2018-10-02T16:15:02.661Z,2.57
2018-10-02T16:17:32.746Z,3.00
2018-10-02T16:20:01.109Z,3.10
2018-10-02T16:22:29.557Z,2.42
2018-10-02T16:24:58.651Z,2.77
2018-10-02T16:27:26.918Z,4.37
2018-10-02T16:29:55.213Z,4.03
2018-10-02T16:32:23.768Z,2.60
2018-10-02T16:34:52.216Z,2.70
2018-10-02T16:37:20.394Z,2.73
2018-10-02T16:39:49.373Z,3.25
2018-10-02T16:42:17.752Z,2.43
2018-10-02T16:44:46.068Z,2.67
2018-10-02T16:47:14.524Z,2.40
2018-10-02T16:49:43.473Z,2.13
2018-10-02T16:52:12.629Z,2.43
2018-10-02T16:54:41.068Z,2.93
2018-10-02T16:57:11.344Z,3.27
2018-10-02T16:59:39.759Z,3.20
2018-10-02T17:02:08.467Z,2.47
2018-10-02T17:04:37.473Z,3.10
2018-10-02T17:07:06.183Z,2.80
2018-10-02T17:09:34.935Z,3.10
2018-10-02T17:12:05.057Z,3.13
2018-10-02T17:14:34.488Z,2.83
2018-10-02T17:17:05.154Z,3.43
2018-10-02T17:19:35.283Z,3.00
2018-10-02T17:22:04.567Z,3.47
2018-10-02T17:24:33.566Z,3.47
2018-10-02T17:27:02.900Z,3.27
2018-10-02T17:29:31.287Z,3.20
2018-10-02T17:31:59.771Z,4.10
2018-10-02T17:34:28.212Z,3.13
2018-10-02T17:36:56.524Z,3.67
2018-10-02T17:39:24.901Z,3.10
2018-10-02T17:41:53.578Z,4.30
2018-10-02T17:44:22.407Z,4.53
2018-10-02T17:46:50.849Z,4.53
2018-10-02T17:49:19.142Z,4.00
2018-10-02T17:51:47.394Z,3.77
2018-10-02T17:54:15.702Z,3.80
2018-10-02T17:56:44.047Z,3.20
2018-10-02T17:59:12.353Z,2.60
2018-10-02T18:01:40.902Z,3.35
2018-10-02T18:04:09.787Z,2.93
2018-10-02T18:06:42.008Z,3.03
2018-10-02T18:09:10.941Z,2.60
2018-10-02T18:11:39.453Z,2.70
2018-10-02T18:14:08.042Z,2.70
2018-10-02T18:16:37.452Z,2.60
2018-10-02T18:19:06.048Z,2.60
2018-10-02T18:21:35.032Z,3.53
2018-10-02T18:24:04.450Z,2.40
2018-10-02T18:26:33.642Z,3.10
2018-10-02T18:29:02.681Z,2.60
2018-10-02T18:31:31.241Z,2.50
2018-10-02T18:33:59.504Z,2.90
2018-10-02T18:36:27.865Z,3.10
2018-10-02T18:38:56.242Z,2.65
2018-10-02T18:41:24.846Z,2.90
2018-10-02T18:43:53.636Z,2.77
2018-10-02T18:46:22.751Z,2.58
2018-10-02T18:48:51.839Z,3.17
2018-10-02T18:51:20.418Z,2.87
2018-10-02T18:53:48.908Z,3.25
2018-10-02T18:56:17.343Z,3.17
2018-10-02T18:58:45.654Z,3.67
2018-10-02T19:01:16.757Z,3.37
2018-10-02T19:03:45.292Z,3.57
2018-10-02T19:06:13.754Z,3.67
2018-10-02T19:08:47.503Z,3.40
2018-10-02T19:11:22.274Z,3.70
2018-10-02T19:13:50.736Z,3.70
2018-10-02T19:16:24.387Z,4.75
2018-10-02T19:18:52.860Z,4.63
2018-10-02T19:21:21.309Z,5.33
2018-10-02T19:23:49.701Z,5.40
2018-10-02T19:26:20.642Z,5.45
2018-10-02T19:28:49.479Z,5.67
2018-10-02T19:31:23.493Z,6.23
2018-10-02T19:33:52.025Z,6.07
2018-10-02T19:36:20.804Z,6.90
2018-10-02T19:39:22.957Z,5.75
2018-10-02T19:41:51.716Z,5.60
2018-10-02T19:44:20.109Z,7.23
2018-10-02T19:46:56.182Z,6.57
2018-10-02T19:49:29.422Z,6.10
2018-10-02T19:52:01.203Z,6.43
2018-10-02T19:54:30.047Z,6.27
2018-10-02T19:56:58.340Z,6.53
2018-10-02T19:59:26.823Z,6.50
2018-10-02T20:01:55.358Z,7.13
2018-10-02T20:04:23.840Z,7.55
2018-10-02T20:06:52.117Z,6.70
2018-10-02T20:09:20.626Z,5.87
2018-10-02T20:11:54.229Z,6.80
2018-10-02T20:14:22.649Z,6.87
2018-10-02T20:16:51.033Z,7.20
2018-10-02T20:19:19.411Z,7.00
2018-10-02T20:21:47.783Z,7.60
2018-10-02T20:24:16.326Z,7.67
2018-10-02T20:26:45.066Z,6.80
2018-10-02T20:29:13.810Z,7.47
2018-10-02T20:31:45.177Z,7.00
2018-10-02T20:34:14.069Z,8.20
2018-10-02T20:36:42.880Z,7.50
2018-10-02T20:39:12.227Z,8.73
2018-10-02T20:41:40.520Z,7.90
2018-10-02T20:44:09.117Z,8.00
2018-10-02T20:46:38.100Z,8.17
2018-10-02T20:49:07.418Z,7.70
2018-10-02T20:51:38.536Z,7.87
2018-10-02T20:54:07.753Z,8.33
2018-10-02T20:56:36.247Z,8.40
2018-10-02T20:59:05.633Z,7.75
2018-10-02T21:01:35.427Z,9.13
2018-10-02T21:04:04.909Z,7.73
2018-10-02T21:06:34.266Z,9.00
2018-10-02T21:09:03.783Z,8.67
2018-10-02T21:11:37.193Z,8.60
2018-10-02T21:14:06.112Z,8.50
2018-10-02T21:16:37.971Z,9.10
2018-10-02T21:19:06.655Z,8.47
2018-10-02T21:21:35.287Z,9.05
2018-10-02T21:24:04.978Z,8.75
2018-10-02T21:26:34.062Z,9.47
2018-10-02T21:29:03.787Z,8.77
2018-10-02T21:31:33.107Z,9.13
2018-10-02T21:34:02.188Z,8.73
2018-10-02T21:36:30.908Z,8.83
2018-10-02T21:38:59.229Z,9.47
2018-10-02T21:41:27.564Z,9.17
2018-10-02T21:43:56.218Z,9.43
2018-10-02T21:46:25.612Z,8.70
2018-10-02T21:48:54.324Z,9.13
2018-10-02T21:51:22.874Z,10.28
2018-10-02T21:53:51.536Z,9.98
2018-10-02T21:56:20.085Z,9.73
2018-10-02T21:58:56.017Z,10.53
2018-10-02T22:01:28.532Z,9.17
2018-10-02T22:03:57.165Z,9.80
2018-10-02T22:06:25.869Z,9.43
2018-10-02T22:08:54.442Z,9.18
2018-10-02T22:11:22.739Z,8.80
2018-10-02T22:13:51.253Z,8.88
2018-10-02T22:16:19.986Z,9.20
2018-10-02T22:18:48.412Z,9.75
2018-10-02T22:21:17.257Z,9.77
2018-10-02T22:23:45.989Z,10.03
2018-10-02T22:26:14.464Z,10.33
2018-10-02T22:28:42.965Z,9.30
2018-10-02T22:31:11.632Z,10.90
2018-10-02T22:33:40.255Z,10.70
2018-10-02T22:36:08.724Z,11.23
2018-10-02T22:38:37.265Z,11.13
2018-10-02T22:41:05.913Z,11.48
2018-10-02T22:43:35.283Z,12.07
2018-10-02T22:46:04.466Z,11.63
2018-10-02T22:48:33.505Z,12.13
2018-10-02T22:51:02.670Z,11.70
2018-10-02T22:53:31.239Z,12.10
2018-10-02T22:55:59.915Z,12.50
2018-10-02T22:58:28.442Z,11.97
2018-10-02T23:00:57.121Z,11.60
2018-10-02T23:03:25.570Z,12.45
2018-10-02T23:05:54.558Z,12.20
2018-10-02T23:08:40.064Z,11.03
2018-10-02T23:11:08.776Z,10.30
2018-10-02T23:13:37.733Z,10.93
2018-10-02T23:16:07.998Z,10.88
2018-10-02T23:18:36.661Z,9.97
2018-10-02T23:21:05.558Z,9.83
2018-10-02T23:23:35.090Z,10.38
2018-10-02T23:26:04.772Z,9.67
2018-10-02T23:28:34.774Z,10.77
2018-10-02T23:31:03.867Z,10.13
2018-10-02T23:33:33.469Z,10.60
2018-10-02T23:36:02.834Z,10.43
2018-10-02T23:38:31.099Z,10.47
2018-10-02T23:40:59.560Z,9.43
2018-10-02T23:43:27.924Z,9.37
2018-10-02T23:45:56.437Z,9.47
2018-10-02T23:48:24.691Z,9.40
2018-10-02T23:50:52.990Z,9.93
2018-10-02T23:53:21.217Z,9.78
2018-10-02T23:55:49.489Z,9.37
2018-10-02T23:58:17.734Z,9.63
